Time;durP1;ratioP1;P1;durP2;ratioP2;P2;SDS_P1;SDS_P2;PMS_P1;PMS_P2;Temp;Humidity;BMP_temperature;BMP_pressure;BME280_temperature;BME280_humidity;BME280_pressure;Samples;Min_cycle;Max_cycle;Signal;HPM_P1;HPM_P2
2022/06/27 00:00:52;;;;;;;4.38;2.53;;;16.40;99.90;;;;;;5094278;28;20205;-72
2022/06/27 00:03:19;;;;;;;3.33;2.25;;;16.40;99.90;;;;;;5093810;28;20619;-72
2022/06/27 00:05:46;;;;;;;4.47;3.03;;;16.40;99.90;;;;;;5093997;28;20205;-72
2022/06/27 00:08:13;;;;;;;4.78;2.22;;;16.40;99.90;;;;;;5094159;28;20259;-73
2022/06/27 00:10:41;;;;;;;4.82;2.80;;;16.40;99.90;;;;;;5094128;28;20205;-72
2022/06/27 00:13:08;;;;;;;4.28;2.63;;;16.40;99.90;;;;;;5094058;28;20201;-73
2022/06/27 00:15:35;;;;;;;4.72;2.53;;;16.50;99.90;;;;;;5094424;28;20251;-72
2022/06/27 00:18:03;;;;;;;2.33;2.08;;;16.40;99.90;;;;;;5094092;28;20229;-73
2022/06/27 00:20:30;;;;;;;5.10;2.30;;;16.50;99.90;;;;;;5093803;28;20198;-72
2022/06/27 00:22:58;;;;;;;4.38;2.65;;;16.50;99.90;;;;;;5093843;28;20198;-72
2022/06/27 00:25:25;;;;;;;2.28;1.98;;;16.40;99.90;;;;;;5093505;28;20546;-71
2022/06/27 00:27:52;;;;;;;3.40;2.83;;;16.30;99.90;;;;;;5093847;28;20216;-72
2022/06/27 00:30:19;;;;;;;3.78;2.85;;;16.40;99.90;;;;;;5093487;28;20202;-71
2022/06/27 00:32:48;;;;;;;2.97;2.70;;;16.50;99.90;;;;;;5093248;28;20274;-72
2022/06/27 00:35:17;;;;;;;5.25;2.80;;;16.40;99.90;;;;;;5093511;28;20570;-72
2022/06/27 00:37:44;;;;;;;3.17;2.20;;;16.50;99.90;;;;;;5093607;28;20233;-70
2022/06/27 00:40:11;;;;;;;3.50;2.70;;;16.50;99.90;;;;;;5093216;28;20206;-70
2022/06/27 00:42:38;;;;;;;2.80;2.60;;;16.40;99.90;;;;;;5084325;28;20214;-70
2022/06/27 00:45:08;;;;;;;2.42;2.22;;;16.50;99.90;;;;;;5088492;28;20206;-70
2022/06/27 00:47:35;;;;;;;3.03;2.05;;;16.60;99.90;;;;;;5093448;28;20267;-72
2022/06/27 00:50:02;;;;;;;4.50;2.63;;;16.50;99.90;;;;;;5089986;28;20272;-72
2022/06/27 00:52:30;;;;;;;5.75;2.80;;;16.40;99.90;;;;;;5071231;28;20237;-72
2022/06/27 00:54:57;;;;;;;3.42;3.08;;;16.50;99.90;;;;;;5072986;28;20210;-70
2022/06/27 00:57:25;;;;;;;3.15;2.17;;;16.40;99.90;;;;;;5072591;28;20226;-70
2022/06/27 00:59:52;;;;;;;3.92;2.00;;;16.30;99.90;;;;;;5072709;28;20210;-72
2022/06/27 01:02:19;;;;;;;6.28;3.70;;;16.40;99.90;;;;;;5072354;28;20260;-72
2022/06/27 01:04:46;;;;;;;3.63;2.60;;;16.50;99.90;;;;;;5073095;28;20276;-70
2022/06/27 01:07:13;;;;;;;3.42;2.42;;;16.50;99.90;;;;;;5072746;28;20267;-71
2022/06/27 01:09:43;;;;;;;8.40;3.67;;;16.40;99.90;;;;;;5072662;28;20206;-70
2022/06/27 01:12:11;;;;;;;4.63;3.47;;;16.40;99.90;;;;;;5072391;28;20229;-71
2022/06/27 01:14:38;;;;;;;3.70;2.70;;;16.40;99.90;;;;;;5072732;28;20743;-72
2022/06/27 01:17:05;;;;;;;10.95;3.08;;;16.40;99.90;;;;;;5072707;28;20206;-73
2022/06/27 01:19:33;;;;;;;3.05;2.75;;;16.40;99.90;;;;;;5072400;28;20217;-72
2022/06/27 01:22:00;;;;;;;4.47;2.78;;;16.30;99.90;;;;;;5072961;28;20209;-73
2022/06/27 01:24:28;;;;;;;8.02;4.05;;;16.20;99.90;;;;;;5072125;28;20269;-73
2022/06/27 01:26:55;;;;;;;5.72;3.33;;;16.20;99.90;;;;;;5072593;28;20283;-73
2022/06/27 01:29:23;;;;;;;5.47;2.95;;;16.10;99.90;;;;;;5072013;28;20263;-71
2022/06/27 01:31:50;;;;;;;4.88;3.78;;;16.10;99.90;;;;;;5072089;28;20632;-69
2022/06/27 01:34:18;;;;;;;4.78;3.22;;;16.00;99.90;;;;;;5072321;28;20283;-73
2022/06/27 01:36:46;;;;;;;7.28;3.15;;;16.10;99.90;;;;;;5072353;28;20232;-72
2022/06/27 01:39:15;;;;;;;3.65;3.33;;;16.10;99.90;;;;;;5071912;28;20238;-69
2022/06/27 01:41:45;;;;;;;5.13;3.33;;;16.10;99.90;;;;;;5071924;28;20225;-68
2022/06/27 01:44:13;;;;;;;5.28;2.70;;;16.10;99.90;;;;;;5072075;28;20335;-70
2022/06/27 01:46:45;;;;;;;4.40;3.53;;;16.00;1.00;;;;;;5072214;28;20207;-74
2022/06/27 01:49:12;;;;;;;3.28;2.47;;;16.00;1.00;;;;;;5071666;28;20206;-73
2022/06/27 01:51:40;;;;;;;3.47;2.92;;;16.00;1.00;;;;;;5072223;28;20259;-72
2022/06/27 01:54:08;;;;;;;4.72;3.15;;;16.10;1.00;;;;;;5071851;28;20210;-70
2022/06/27 01:56:35;;;;;;;3.28;2.97;;;16.10;1.00;;;;;;5072439;28;20206;-69
2022/06/27 01:59:04;;;;;;;6.18;3.22;;;16.10;1.00;;;;;;5071813;28;20790;-71
2022/06/27 02:01:31;;;;;;;4.75;2.88;;;16.00;1.00;;;;;;5072038;28;20205;-71
2022/06/27 02:04:00;;;;;;;4.30;2.67;;;16.00;1.00;;;;;;5071587;28;20256;-71
2022/06/27 02:06:28;;;;;;;3.30;2.88;;;16.00;1.00;;;;;;5071404;28;20208;-73
2022/06/27 02:08:58;;;;;;;6.85;3.28;;;16.10;1.00;;;;;;5071445;28;20206;-72
2022/06/27 02:11:26;;;;;;;5.25;3.20;;;16.10;1.00;;;;;;5071514;28;20214;-73
2022/06/27 02:13:54;;;;;;;6.50;3.53;;;16.00;1.00;;;;;;5071149;28;20268;-71
2022/06/27 02:16:23;;;;;;;8.10;3.17;;;16.00;1.00;;;;;;5071232;28;20289;-71
2022/06/27 02:18:50;;;;;;;4.38;2.63;;;16.00;1.00;;;;;;5070710;28;20225;-71
2022/06/27 02:21:21;;;;;;;5.07;2.80;;;16.00;1.00;;;;;;5070984;28;20636;-71
2022/06/27 02:23:50;;;;;;;4.47;3.28;;;16.10;1.00;;;;;;5071460;28;20237;-70
2022/06/27 02:26:17;;;;;;;4.90;3.25;;;16.10;1.00;;;;;;5071042;28;20206;-71
2022/06/27 02:28:44;;;;;;;2.88;2.60;;;16.10;1.00;;;;;;5071086;28;20202;-71
2022/06/27 02:31:12;;;;;;;7.32;4.22;;;16.10;1.00;;;;;;5070741;28;20665;-70
2022/06/27 02:33:43;;;;;;;3.75;3.35;;;16.10;1.00;;;;;;5071138;28;20624;-70
2022/06/27 02:36:13;;;;;;;3.50;3.20;;;16.10;1.00;;;;;;5070583;28;20201;-70
2022/06/27 02:38:42;;;;;;;4.30;3.03;;;16.00;1.00;;;;;;5071293;28;20240;-70
2022/06/27 02:41:15;;;;;;;3.88;2.90;;;16.10;1.00;;;;;;5070416;28;20212;-70
2022/06/27 02:43:44;;;;;;;4.13;3.28;;;16.10;1.00;;;;;;5070146;28;20293;-70
2022/06/27 02:46:12;;;;;;;3.40;3.10;;;16.20;1.00;;;;;;5069439;28;20299;-70
2022/06/27 02:48:42;;;;;;;4.40;2.72;;;16.10;1.00;;;;;;5070465;28;20206;-69
2022/06/27 02:51:12;;;;;;;3.42;2.95;;;16.20;1.00;;;;;;5069781;28;20205;-70
2022/06/27 02:53:46;;;;;;;6.80;3.50;;;16.20;1.00;;;;;;5070229;28;20242;-70
2022/06/27 02:56:17;;;;;;;4.38;2.92;;;16.10;1.00;;;;;;5069727;28;20214;-70
2022/06/27 02:58:52;;;;;;;5.45;3.35;;;16.00;1.00;;;;;;5069698;28;20229;-70
2022/06/27 03:01:21;;;;;;;6.15;3.35;;;16.00;1.00;;;;;;5069700;28;20209;-71
2022/06/27 03:03:51;;;;;;;3.95;2.35;;;16.00;1.00;;;;;;5069950;28;20210;-71
2022/06/27 03:06:19;;;;;;;3.00;2.70;;;15.90;1.00;;;;;;5069527;28;20272;-72
2022/06/27 03:08:48;;;;;;;3.65;2.47;;;15.90;1.00;;;;;;5069937;28;20206;-71
2022/06/27 03:11:16;;;;;;;3.75;3.25;;;16.00;1.00;;;;;;5069503;28;20214;-72
2022/06/27 03:13:45;;;;;;;6.00;2.88;;;16.00;1.00;;;;;;5069584;28;20210;-71
2022/06/27 03:16:12;;;;;;;2.88;2.67;;;16.00;1.00;;;;;;5069436;28;20674;-72
2022/06/27 03:18:39;;;;;;;4.13;2.38;;;15.90;1.00;;;;;;5069600;28;20315;-71
2022/06/27 03:21:08;;;;;;;2.65;2.10;;;15.90;1.00;;;;;;5069793;28;20353;-71
2022/06/27 03:23:35;;;;;;;4.35;2.28;;;15.80;1.00;;;;;;5069738;28;20201;-71
2022/06/27 03:26:02;;;;;;;4.10;2.05;;;15.90;1.00;;;;;;5069750;28;20559;-71
2022/06/27 03:28:29;;;;;;;2.10;1.90;;;15.90;1.00;;;;;;5069486;28;20249;-71
2022/06/27 03:30:56;;;;;;;2.38;1.40;;;15.90;1.00;;;;;;5068265;28;20198;-70
2022/06/27 03:33:23;;;;;;;2.40;2.20;;;15.80;1.00;;;;;;5069212;28;20270;-69
2022/06/27 03:35:51;;;;;;;2.58;2.00;;;15.80;1.00;;;;;;5069409;28;20202;-69
2022/06/27 03:38:19;;;;;;;1.33;1.23;;;15.80;1.00;;;;;;5069040;28;20225;-70
2022/06/27 03:40:46;;;;;;;2.22;1.77;;;16.00;1.00;;;;;;5029532;28;1126832;-70
2022/06/27 03:43:13;;;;;;;2.92;1.77;;;15.90;1.00;;;;;;5069966;28;20620;-70
2022/06/27 03:45:40;;;;;;;1.83;1.73;;;15.80;1.00;;;;;;5070360;28;20236;-70
2022/06/27 03:48:08;;;;;;;2.30;2.10;;;15.70;1.00;;;;;;5056447;28;20739;-70
2022/06/27 03:50:34;;;;;;;1.80;1.70;;;15.70;1.00;;;;;;5070678;28;20210;-70
2022/06/27 03:53:03;;;;;;;2.63;1.80;;;15.70;1.00;;;;;;5070337;28;20206;-70
2022/06/27 03:55:33;;;;;;;2.55;1.55;;;15.80;1.00;;;;;;5070044;28;20560;-70
2022/06/27 03:58:00;;;;;;;2.35;1.83;;;15.90;1.00;;;;;;5070076;28;20202;-70
2022/06/27 04:00:32;;;;;;;2.00;1.65;;;16.00;1.00;;;;;;5060998;28;20768;-69
2022/06/27 04:03:00;;;;;;;5.00;1.60;;;15.90;1.00;;;;;;5070034;28;20300;-69
2022/06/27 04:05:27;;;;;;;2.50;1.55;;;15.80;1.00;;;;;;5080871;28;20629;-69
2022/06/27 04:07:54;;;;;;;2.13;1.92;;;15.80;1.00;;;;;;5082751;28;20202;-69
2022/06/27 04:10:21;;;;;;;3.47;1.90;;;15.90;1.00;;;;;;5069857;28;20616;-69
2022/06/27 04:12:49;;;;;;;1.90;1.70;;;16.00;1.00;;;;;;5070766;28;20248;-69
2022/06/27 04:15:16;;;;;;;2.47;2.28;;;15.90;1.00;;;;;;5070556;28;20241;-69
2022/06/27 04:17:43;;;;;;;2.67;2.13;;;15.90;1.00;;;;;;5070953;28;20264;-70
2022/06/27 04:20:11;;;;;;;1.45;1.35;;;15.90;1.00;;;;;;5070891;28;20234;-70
2022/06/27 04:22:38;;;;;;;2.78;1.83;;;15.80;1.00;;;;;;5074048;28;20626;-69
2022/06/27 04:25:06;;;;;;;3.20;2.22;;;15.90;1.00;;;;;;5072213;28;20584;-69
2022/06/27 04:27:33;;;;;;;6.03;2.20;;;15.90;1.00;;;;;;5076185;28;20296;-69
2022/06/27 04:30:02;;;;;;;2.30;2.08;;;15.80;1.00;;;;;;5073442;28;20233;-68
2022/06/27 04:32:29;;;;;;;2.30;2.10;;;15.80;1.00;;;;;;5076730;28;20259;-68
2022/06/27 04:34:56;;;;;;;2.33;2.00;;;15.80;1.00;;;;;;5074013;28;20852;-69
2022/06/27 04:37:23;;;;;;;2.17;1.98;;;15.80;1.00;;;;;;5076469;28;20271;-69
2022/06/27 04:39:50;;;;;;;2.45;2.20;;;15.80;1.00;;;;;;5075753;28;20325;-69
2022/06/27 04:42:18;;;;;;;2.47;2.28;;;15.90;1.00;;;;;;5071532;28;20214;-70
2022/06/27 04:44:45;;;;;;;3.22;2.75;;;15.80;1.00;;;;;;5074573;28;20284;-69
2022/06/27 04:47:15;;;;;;;4.40;2.45;;;15.80;1.00;;;;;;5073356;28;20242;-70
2022/06/27 04:49:42;;;;;;;4.60;2.55;;;15.80;1.00;;;;;;5076048;28;20735;-70
2022/06/27 04:52:10;;;;;;;3.42;2.55;;;15.80;1.00;;;;;;5074697;28;20213;-70
2022/06/27 04:54:38;;;;;;;2.20;2.00;;;15.70;1.00;;;;;;5074833;28;20254;-70
2022/06/27 04:57:06;;;;;;;2.83;1.92;;;15.70;1.00;;;;;;5073277;28;20292;-70
2022/06/27 04:59:34;;;;;;;2.55;2.35;;;15.70;1.00;;;;;;5073556;28;20256;-70
2022/06/27 05:02:01;;;;;;;2.85;2.00;;;15.70;1.00;;;;;;5073611;28;20256;-70
2022/06/27 05:04:30;;;;;;;3.25;1.88;;;15.70;1.00;;;;;;5073424;28;20313;-70
2022/06/27 05:06:57;;;;;;;3.28;2.00;;;15.60;1.00;;;;;;5074943;28;20267;-71
2022/06/27 05:09:26;;;;;;;3.38;2.13;;;15.60;1.00;;;;;;5073709;28;20206;-70
2022/06/27 05:11:54;;;;;;;4.63;2.33;;;15.60;1.00;;;;;;5074872;28;20209;-70
2022/06/27 05:14:21;;;;;;;3.10;1.75;;;15.60;1.00;;;;;;5076025;28;20214;-70
2022/06/27 05:16:48;;;;;;;2.05;1.83;;;15.70;1.00;;;;;;5075555;28;20210;-70
2022/06/27 05:19:15;;;;;;;2.50;2.30;;;15.70;1.00;;;;;;5077920;28;20329;-70
2022/06/27 05:21:44;;;;;;;2.15;1.92;;;15.70;1.00;;;;;;5076356;28;20214;-69
2022/06/27 05:24:12;;;;;;;2.30;2.10;;;15.70;1.00;;;;;;5080091;28;20197;-70
2022/06/27 05:26:39;;;;;;;3.50;2.08;;;15.80;1.00;;;;;;5071979;28;20692;-72
2022/06/27 05:29:06;;;;;;;2.40;2.20;;;15.80;1.00;;;;;;5070312;28;20260;-71
2022/06/27 05:31:33;;;;;;;2.60;1.95;;;16.00;1.00;;;;;;5071054;28;20237;-71
2022/06/27 05:34:00;;;;;;;2.45;2.03;;;16.00;1.00;;;;;;5072661;28;20214;-70
2022/06/27 05:36:28;;;;;;;2.70;1.90;;;15.80;1.00;;;;;;5071321;28;21004;-71
2022/06/27 05:38:56;;;;;;;2.97;2.03;;;15.80;1.00;;;;;;5072057;28;20550;-71
2022/06/27 05:41:24;;;;;;;4.00;2.08;;;15.80;1.00;;;;;;5071663;28;20800;-72
2022/06/27 05:43:51;;;;;;;2.03;1.88;;;15.70;1.00;;;;;;5072105;28;20242;-71
2022/06/27 05:46:19;;;;;;;4.13;2.60;;;15.70;1.00;;;;;;5071596;28;20206;-71
2022/06/27 05:48:46;;;;;;;5.03;2.03;;;15.70;1.00;;;;;;5072148;28;20301;-71
2022/06/27 05:51:14;;;;;;;3.70;2.22;;;15.70;1.00;;;;;;5070894;28;20202;-72
2022/06/27 05:53:43;;;;;;;5.43;2.10;;;15.70;1.00;;;;;;5070594;28;20298;-72
2022/06/27 05:56:11;;;;;;;2.50;1.48;;;15.70;1.00;;;;;;5071272;28;20599;-71
2022/06/27 05:58:38;;;;;;;3.08;2.25;;;15.70;1.00;;;;;;5071791;28;20206;-71
2022/06/27 06:01:06;;;;;;;3.53;2.30;;;15.70;1.00;;;;;;5072396;28;20199;-71
2022/06/27 06:03:33;;;;;;;10.63;3.25;;;15.80;1.00;;;;;;5072251;28;20206;-71
2022/06/27 06:06:00;;;;;;;3.75;2.00;;;15.80;1.00;;;;;;5071711;28;20210;-71
2022/06/27 06:08:27;;;;;;;7.38;3.35;;;15.90;1.00;;;;;;5071390;28;20806;-73
2022/06/27 06:10:54;;;;;;;8.02;2.17;;;15.90;1.00;;;;;;5071813;28;20206;-74
2022/06/27 06:13:24;;;;;;;8.13;2.65;;;16.10;1.00;;;;;;5071272;28;20210;-74
2022/06/27 06:15:52;;;;;;;5.30;3.10;;;16.20;1.00;;;;;;5071540;28;20693;-72
2022/06/27 06:18:21;;;;;;;6.53;2.80;;;16.10;99.90;;;;;;5071002;28;20213;-72
2022/06/27 06:20:48;;;;;;;5.10;2.75;;;16.10;99.90;;;;;;5071187;28;20236;-71
2022/06/27 06:23:15;;;;;;;6.45;2.40;;;16.10;99.90;;;;;;5065934;28;20214;-73
2022/06/27 06:25:43;;;;;;;2.10;1.67;;;16.10;99.90;;;;;;5067612;28;20203;-71
2022/06/27 06:28:10;;;;;;;2.67;1.95;;;16.10;99.90;;;;;;5073950;28;20321;-72
2022/06/27 06:30:38;;;;;;;5.22;1.90;;;16.10;99.90;;;;;;5071973;28;20210;-73
2022/06/27 06:33:06;;;;;;;6.05;2.00;;;16.20;99.90;;;;;;5071859;28;20268;-73
2022/06/27 06:35:34;;;;;;;3.03;1.95;;;16.20;99.90;;;;;;5071748;28;20209;-73
2022/06/27 06:38:02;;;;;;;4.40;1.73;;;16.20;99.90;;;;;;5072489;28;20255;-72
2022/06/27 06:40:29;;;;;;;4.60;1.90;;;16.10;99.90;;;;;;5072382;28;20240;-72
2022/06/27 06:42:57;;;;;;;3.80;2.08;;;16.10;99.90;;;;;;5072412;28;20270;-72
2022/06/27 06:45:24;;;;;;;4.20;1.77;;;16.00;99.90;;;;;;5070080;28;20207;-75
2022/06/27 06:47:53;;;;;;;4.03;1.80;;;15.90;99.90;;;;;;5070913;28;20244;-75
2022/06/27 06:50:20;;;;;;;5.55;2.03;;;15.90;99.90;;;;;;5070343;28;20210;-73
2022/06/27 06:52:49;;;;;;;3.70;2.15;;;15.90;99.90;;;;;;5070589;28;20210;-74
2022/06/27 06:55:16;;;;;;;4.28;2.13;;;16.00;99.90;;;;;;5070342;28;20589;-73
2022/06/27 06:57:43;;;;;;;2.97;1.70;;;16.10;99.90;;;;;;5070983;28;20202;-72
2022/06/27 07:00:11;;;;;;;3.25;2.08;;;16.00;99.90;;;;;;5064194;28;20292;-73
2022/06/27 07:02:38;;;;;;;6.38;2.42;;;16.00;99.90;;;;;;5070940;28;20567;-70
2022/06/27 07:05:11;;;;;;;4.30;2.13;;;16.00;99.90;;;;;;5070628;28;20206;-71
2022/06/27 07:07:39;;;;;;;4.38;2.72;;;15.90;99.90;;;;;;5070653;28;20238;-72
2022/06/27 07:10:08;;;;;;;8.63;2.58;;;15.80;99.90;;;;;;5071020;28;20259;-72
2022/06/27 07:12:35;;;;;;;10.65;2.10;;;15.90;99.90;;;;;;5067469;28;20202;-72
2022/06/27 07:15:03;;;;;;;8.98;2.28;;;15.90;99.90;;;;;;5070736;28;20225;-70
2022/06/27 07:17:31;;;;;;;4.43;2.20;;;15.90;99.90;;;;;;5070078;28;20228;-72
2022/06/27 07:19:58;;;;;;;8.35;2.10;;;15.90;99.90;;;;;;5069905;28;20327;-73
2022/06/27 07:22:28;;;;;;;5.35;2.60;;;15.80;99.90;;;;;;5066671;28;20716;-73
2022/06/27 07:24:55;;;;;;;5.20;1.92;;;15.90;99.90;;;;;;5070383;28;20268;-73
2022/06/27 07:27:22;;;;;;;5.78;2.42;;;15.90;99.90;;;;;;5070126;28;20206;-71
2022/06/27 07:29:50;;;;;;;5.93;2.13;;;15.90;99.90;;;;;;5069877;28;20202;-73
2022/06/27 07:32:18;;;;;;;4.10;1.63;;;15.80;99.90;;;;;;5068175;28;20678;-72
2022/06/27 07:34:45;;;;;;;4.88;2.38;;;15.70;99.90;;;;;;5070364;28;20577;-71
2022/06/27 07:37:12;;;;;;;4.80;2.30;;;15.80;99.90;;;;;;5062917;28;20273;-71
2022/06/27 07:39:40;;;;;;;3.80;1.90;;;15.80;99.90;;;;;;5070053;28;20748;-73
2022/06/27 07:42:08;;;;;;;3.75;1.60;;;15.80;99.90;;;;;;5064061;28;20302;-71
2022/06/27 07:44:35;;;;;;;3.25;1.70;;;15.80;99.90;;;;;;5070537;28;20291;-72
2022/06/27 07:47:03;;;;;;;6.28;2.25;;;15.80;99.90;;;;;;5068804;28;20209;-70
2022/06/27 07:49:32;;;;;;;3.67;1.98;;;15.70;99.90;;;;;;5070329;28;20210;-70
2022/06/27 07:51:59;;;;;;;4.82;2.22;;;15.70;99.90;;;;;;5070018;28;20210;-71
2022/06/27 07:54:27;;;;;;;5.35;1.80;;;15.80;99.90;;;;;;5066168;28;20572;-71
2022/06/27 07:56:56;;;;;;;4.50;1.92;;;15.80;99.90;;;;;;5066553;28;20221;-73
2022/06/27 07:59:25;;;;;;;3.78;2.60;;;15.80;99.90;;;;;;5069688;28;20238;-71
2022/06/27 08:01:52;;;;;;;5.90;2.30;;;15.80;99.90;;;;;;5059277;28;20709;-70
2022/06/27 08:04:19;;;;;;;3.63;1.90;;;15.90;99.90;;;;;;5073490;28;20202;-72
2022/06/27 08:06:49;;;;;;;3.72;2.47;;;16.00;99.90;;;;;;5068615;28;20248;-71
2022/06/27 08:09:16;;;;;;;5.05;2.20;;;16.00;99.90;;;;;;5070153;28;20220;-73
2022/06/27 08:11:44;;;;;;;8.10;1.98;;;16.00;99.90;;;;;;5069502;28;20658;-73
2022/06/27 08:14:16;;;;;;;2.28;2.00;;;16.00;99.90;;;;;;5075908;28;20237;-71
2022/06/27 08:16:43;;;;;;;3.95;2.20;;;16.00;99.90;;;;;;5080815;28;20258;-74
2022/06/27 08:19:11;;;;;;;2.75;2.40;;;16.00;99.90;;;;;;5089673;28;20375;-74
2022/06/27 08:21:41;;;;;;;4.72;2.55;;;16.10;99.90;;;;;;5089573;28;20206;-72
2022/06/27 08:24:09;;;;;;;6.03;2.20;;;16.20;99.90;;;;;;5090476;28;20194;-74
2022/06/27 08:26:37;;;;;;;4.10;1.95;;;16.10;99.90;;;;;;5090394;28;20288;-74
2022/06/27 08:29:05;;;;;;;3.17;1.80;;;16.00;99.90;;;;;;5092434;28;20205;-75
2022/06/27 08:31:34;;;;;;;3.85;2.80;;;16.00;99.90;;;;;;5091499;28;20205;-73
2022/06/27 08:34:02;;;;;;;5.68;2.30;;;16.00;99.90;;;;;;5081366;28;20214;-72
2022/06/27 08:36:30;;;;;;;9.65;2.38;;;16.00;99.90;;;;;;5072863;28;20206;-74
2022/06/27 08:38:58;;;;;;;5.53;2.03;;;16.00;99.90;;;;;;5073462;28;20592;-74
2022/06/27 08:41:25;;;;;;;3.10;2.28;;;16.00;99.90;;;;;;5072955;28;20233;-74
2022/06/27 08:43:59;;;;;;;6.25;3.75;;;16.00;99.90;;;;;;5072905;28;20242;-74
2022/06/27 08:46:26;;;;;;;6.30;2.47;;;16.10;99.90;;;;;;5072925;28;20202;-75
2022/06/27 08:48:55;;;;;;;6.68;3.08;;;16.10;99.90;;;;;;5072659;28;20202;-72
2022/06/27 08:51:23;;;;;;;4.68;2.72;;;16.20;99.90;;;;;;5072385;28;20594;-75
2022/06/27 08:53:52;;;;;;;5.28;2.72;;;16.20;99.90;;;;;;5072963;28;20206;-73
2022/06/27 08:56:19;;;;;;;8.23;4.05;;;16.20;99.90;;;;;;5072855;28;20206;-73
2022/06/27 08:58:47;;;;;;;6.47;2.70;;;16.30;99.90;;;;;;5079452;28;20204;-73
2022/06/27 09:01:15;;;;;;;7.90;2.45;;;16.40;99.90;;;;;;5083640;28;20705;-72
2022/06/27 09:03:58;;;;;;;4.85;2.60;;;16.50;99.90;;;;;;5078296;28;20255;-73
2022/06/27 09:06:27;;;;;;;6.68;2.58;;;16.50;99.90;;;;;;5077540;28;20217;-75
2022/06/27 09:09:03;;;;;;;7.60;3.22;;;16.40;99.90;;;;;;5071875;28;20301;-73
2022/06/27 09:11:31;;;;;;;2.70;2.20;;;16.30;99.90;;;;;;5071950;28;20213;-72
2022/06/27 09:13:59;;;;;;;6.25;2.50;;;16.30;99.90;;;;;;5071658;28;20293;-71
2022/06/27 09:16:27;;;;;;;5.05;2.70;;;16.30;99.90;;;;;;5074098;28;20206;-72
2022/06/27 09:18:55;;;;;;;3.72;2.35;;;16.30;99.90;;;;;;5072640;28;20755;-75
2022/06/27 09:21:24;;;;;;;4.95;2.47;;;16.30;99.90;;;;;;5071114;28;20241;-74
2022/06/27 09:23:55;;;;;;;7.45;2.88;;;16.20;99.90;;;;;;5072328;28;20703;-68
2022/06/27 09:26:25;;;;;;;6.88;2.30;;;16.20;99.90;;;;;;5072389;28;20301;-69
2022/06/27 09:28:54;;;;;;;6.55;2.88;;;16.20;99.90;;;;;;5071728;28;20289;-69
2022/06/27 09:31:42;;;;;;;5.03;2.17;;;16.10;99.90;;;;;;5072157;28;20202;-70
2022/06/27 09:34:16;;;;;;;5.30;2.42;;;16.10;99.90;;;;;;5071855;28;20202;-73
2022/06/27 09:36:46;;;;;;;7.85;3.10;;;16.10;99.90;;;;;;5078549;28;20691;-68
2022/06/27 09:39:19;;;;;;;6.03;2.63;;;16.10;99.90;;;;;;5081414;28;20209;-73
2022/06/27 09:41:54;;;;;;;4.50;2.38;;;16.10;99.90;;;;;;5087168;28;20229;-73
2022/06/27 09:44:24;;;;;;;4.55;2.20;;;16.00;99.90;;;;;;5078140;28;20276;-71
2022/06/27 09:46:56;;;;;;;4.35;2.80;;;16.00;1.00;;;;;;5083411;28;20739;-70
2022/06/27 09:49:26;;;;;;;5.47;2.40;;;16.10;1.00;;;;;;5086422;28;20229;-69
2022/06/27 09:51:56;;;;;;;4.50;2.42;;;16.00;1.00;;;;;;5086215;28;20210;-69
2022/06/27 09:54:23;;;;;;;5.38;2.17;;;16.00;1.00;;;;;;5081817;28;20676;-70
2022/06/27 09:56:52;;;;;;;4.68;2.20;;;16.00;1.00;;;;;;5084010;28;20251;-72
2022/06/27 09:59:20;;;;;;;5.10;3.03;;;15.90;1.00;;;;;;5080479;28;20259;-72
2022/06/27 10:01:49;;;;;;;3.05;1.80;;;16.00;1.00;;;;;;5086484;28;20235;-69
2022/06/27 10:04:17;;;;;;;4.90;2.05;;;16.00;1.00;;;;;;5082785;28;20201;-73
2022/06/27 10:06:46;;;;;;;7.25;3.17;;;16.00;1.00;;;;;;5082981;28;20205;-70
2022/06/27 10:09:15;;;;;;;4.78;2.42;;;16.00;1.00;;;;;;5071764;28;20202;-69
2022/06/27 10:11:42;;;;;;;5.35;2.47;;;16.00;1.00;;;;;;5071307;28;20245;-70
2022/06/27 10:14:14;;;;;;;4.32;2.67;;;16.00;1.00;;;;;;5071792;28;20206;-73
2022/06/27 10:16:52;;;;;;;11.07;2.88;;;16.00;1.00;;;;;;5067832;28;20256;-69
2022/06/27 10:19:20;;;;;;;7.20;4.70;;;15.90;1.00;;;;;;5074799;28;20288;-68
2022/06/27 10:21:51;;;;;;;5.85;3.20;;;16.00;1.00;;;;;;5073531;28;20229;-79
2022/06/27 10:24:33;;;;;;;9.70;3.42;;;16.10;1.00;;;;;;5074863;28;20559;-80
2022/06/27 10:27:03;;;;;;;5.28;2.65;;;16.10;1.00;;;;;;5076342;28;20285;-79
2022/06/27 10:29:42;;;;;;;3.35;2.53;;;16.30;1.00;;;;;;5067199;28;20285;-78
2022/06/27 10:32:44;;;;;;;6.22;2.65;;;16.40;1.00;;;;;;5070395;28;20209;-70
2022/06/27 10:35:23;;;;;;;6.47;2.10;;;16.50;1.00;;;;;;5063545;28;20225;-71
2022/06/27 10:37:52;;;;;;;4.30;2.28;;;16.50;1.00;;;;;;5068716;28;20245;-71
2022/06/27 10:40:44;;;;;;;6.95;2.60;;;16.30;1.00;;;;;;5068488;28;20713;-76
2022/06/27 10:43:41;;;;;;;6.53;3.25;;;16.30;1.00;;;;;;5060786;28;20293;-76
2022/06/27 10:46:41;;;;;;;10.48;3.97;;;16.50;1.00;;;;;;5070217;28;20202;-71
2022/06/27 10:49:25;;;;;;;5.00;3.10;;;16.60;1.00;;;;;;5074300;28;20213;-71
2022/06/27 10:51:53;;;;;;;4.45;2.97;;;16.70;99.90;;;;;;5075243;28;20224;-74
2022/06/27 10:54:22;;;;;;;4.78;2.40;;;16.70;1.00;;;;;;5070123;28;20218;-71
2022/06/27 10:56:51;;;;;;;5.35;2.67;;;16.90;1.00;;;;;;5069428;28;20206;-74
2022/06/27 11:00:02;;;;;;;5.53;2.50;;;17.20;1.00;;;;;;5066106;28;20242;-71
2022/06/27 11:02:31;;;;;;;3.35;2.40;;;17.50;99.90;;;;;;5071402;28;20209;-71
2022/06/27 11:04:58;;;;;;;5.10;2.53;;;17.60;99.90;;;;;;5070717;28;20256;-70
2022/06/27 11:07:26;;;;;;;3.15;1.85;;;17.50;99.90;;;;;;5069023;28;20719;-69
2022/06/27 11:09:55;;;;;;;4.90;1.80;;;17.20;99.90;;;;;;5073009;28;20241;-73
2022/06/27 11:12:29;;;;;;;3.10;1.67;;;17.00;99.90;;;;;;5075060;28;20208;-69
2022/06/27 11:14:58;;;;;;;10.18;4.15;;;17.00;99.90;;;;;;5080201;28;20237;-68
2022/06/27 11:17:29;;;;;;;6.43;2.10;;;16.90;99.90;;;;;;5081572;28;20994;-67
2022/06/27 11:20:21;;;;;;;4.13;2.83;;;16.80;99.90;;;;;;5071122;28;20259;-70
2022/06/27 11:22:53;;;;;;;4.72;2.45;;;16.80;99.90;;;;;;5064423;28;20727;-68
2022/06/27 11:25:23;;;;;;;3.80;2.35;;;16.70;99.90;;;;;;5077614;28;20204;-71
2022/06/27 11:27:53;;;;;;;7.90;2.85;;;16.70;99.90;;;;;;5075794;28;20259;-70
2022/06/27 11:33:17;;;;;;;4.30;2.70;;;16.60;99.90;;;;;;5069470;28;20435;-70
2022/06/27 11:35:45;;;;;;;6.07;3.08;;;16.60;99.90;;;;;;5070136;28;20385;-71
2022/06/27 11:38:13;;;;;;;8.57;2.90;;;16.60;99.90;;;;;;5073425;28;20285;-70
2022/06/27 11:40:41;;;;;;;4.85;2.63;;;16.60;99.90;;;;;;5065245;28;20310;-71
2022/06/27 11:43:08;;;;;;;5.88;2.70;;;16.60;99.90;;;;;;5065061;28;20743;-70
2022/06/27 11:45:41;;;;;;;4.18;2.25;;;16.50;99.90;;;;;;5069199;28;20279;-69
2022/06/27 11:48:15;;;;;;;7.78;2.30;;;16.50;99.90;;;;;;5069320;28;20237;-71
2022/06/27 11:50:43;;;;;;;7.53;2.58;;;16.50;99.90;;;;;;5062243;28;20295;-76
2022/06/27 11:53:10;;;;;;;6.28;2.85;;;16.50;99.90;;;;;;5072967;28;20223;-72
2022/06/27 11:55:37;;;;;;;4.28;2.67;;;16.60;99.90;;;;;;5062266;28;20647;-70
2022/06/27 11:58:05;;;;;;;4.53;2.28;;;16.70;99.90;;;;;;5068683;28;20267;-72
2022/06/27 12:00:34;;;;;;;7.45;3.03;;;16.80;99.90;;;;;;5079850;28;20214;-72
2022/06/27 12:03:05;;;;;;;6.50;2.30;;;16.60;99.90;;;;;;5085024;28;20715;-81
2022/06/27 12:05:32;;;;;;;4.82;2.80;;;16.50;99.90;;;;;;5086142;28;20197;-81
2022/06/27 12:08:01;;;;;;;7.85;3.13;;;16.50;99.90;;;;;;5080931;28;20212;-85
2022/06/27 12:10:44;;;;;;;6.20;2.05;;;16.70;99.90;;;;;;5074100;28;20210;-83
2022/06/27 12:13:14;;;;;;;3.38;1.95;;;16.70;99.90;;;;;;5073838;28;20209;-83
2022/06/27 12:15:43;;;;;;;5.93;2.55;;;16.80;99.90;;;;;;5090573;28;20198;-83
2022/06/27 12:18:12;;;;;;;3.55;2.38;;;16.80;99.90;;;;;;5082907;28;20673;-76
2022/06/27 12:20:41;;;;;;;7.20;3.13;;;16.70;99.90;;;;;;5086738;28;20202;-76
2022/06/27 12:23:08;;;;;;;6.22;3.30;;;16.70;99.90;;;;;;5090752;28;20205;-74
2022/06/27 12:25:36;;;;;;;6.78;4.32;;;16.90;99.90;;;;;;5091931;28;20197;-73
2022/06/27 12:28:04;;;;;;;4.82;2.50;;;17.10;99.90;;;;;;5092019;28;20288;-74
2022/06/27 12:30:32;;;;;;;4.50;2.50;;;17.20;99.90;;;;;;5092688;28;20251;-72
2022/06/27 12:33:00;;;;;;;7.00;2.92;;;17.40;99.90;;;;;;5090412;28;20248;-77
2022/06/27 12:35:27;;;;;;;4.93;2.90;;;17.30;99.90;;;;;;5090442;28;20219;-75
2022/06/27 12:38:00;;;;;;;5.68;2.88;;;17.40;99.90;;;;;;5088136;28;20214;-73
2022/06/27 12:40:27;;;;;;;3.28;2.35;;;17.40;99.90;;;;;;5090068;28;20241;-73
2022/06/27 12:42:54;;;;;;;6.80;2.70;;;17.20;99.90;;;;;;5090459;28;20712;-73
2022/06/27 12:45:21;;;;;;;5.10;1.77;;;17.10;99.90;;;;;;5091824;28;20255;-73
2022/06/27 12:47:50;;;;;;;4.25;2.88;;;17.00;99.90;;;;;;5092669;28;20201;-76
2022/06/27 12:50:17;;;;;;;5.07;3.33;;;17.00;99.90;;;;;;5084270;28;20205;-74
2022/06/27 12:52:44;;;;;;;3.85;2.17;;;17.00;99.90;;;;;;5082773;28;20202;-79
2022/06/27 12:55:12;;;;;;;3.33;2.50;;;17.00;99.90;;;;;;5090595;28;20243;-73
2022/06/27 12:57:39;;;;;;;3.90;2.20;;;17.00;99.90;;;;;;5089168;28;20726;-76
2022/06/27 13:00:07;;;;;;;3.85;1.83;;;17.00;99.90;;;;;;5091214;28;20201;-73
2022/06/27 13:02:34;;;;;;;2.65;2.10;;;16.90;99.90;;;;;;5087411;28;20229;-77